Beverly Hills, Michigan
Current Conditions -  °F | °C
As of 6:15 PM on Saturday 25 Oct 2014 (Local Time) from KVLL Reporting Station
Clear Clear  
Wind Chill: 66°   Ceiling: Unl
Heat Index: 66°   Visibility: 10mi
Dew Point: 22°   Wind: 22mph
Humidity: 19%   Direction: 280°W
Pressure: 29.75"   Gusts: 31mph
Location:  42.52°N, 83.23°W
Report Text: KVLL 252215Z AUTO 28019G27KT 10SM CLR 19/M06 A2975 RMK AO2 T01901056
Loading
Personal Weather Stations






























Interactive Weather Map
Tropical Storm Tracking
New forecast layout! Learn more

10-Day Weather Forecast

Advertisements
Track Severe Weather on mobile